Time;durP1;ratioP1;P1;durP2;ratioP2;P2;SDS_P1;SDS_P2;PMS_P1;PMS_P2;Temp;Humidity;BMP_temperature;BMP_pressure;BME280_temperature;BME280_humidity;BME280_pressure;Samples;Min_cycle;Max_cycle;Signal;HPM_P1;HPM_P2
2023/07/08 00:00:16;;;;;;;5.80;5.20;;;21.10;89.70;;;;;;5077659;28;20427;-62
2023/07/08 00:02:46;;;;;;;7.63;5.77;;;21.00;90.10;;;;;;5080836;28;20426;-59
2023/07/08 00:05:15;;;;;;;7.40;5.40;;;21.40;91.20;;;;;;5079191;28;20521;-58
2023/07/08 00:07:43;;;;;;;7.50;5.80;;;21.10;89.80;;;;;;5074278;28;20478;-60
2023/07/08 00:10:15;;;;;;;6.03;4.27;;;20.40;99.90;;;;;;5074221;28;20497;-59
2023/07/08 00:12:45;;;;;;;6.93;4.60;;;21.10;91.60;;;;;;5077990;28;20529;-57
2023/07/08 00:15:13;;;;;;;5.40;4.20;;;21.00;90.30;;;;;;5077201;28;20511;-61
2023/07/08 00:17:40;;;;;;;6.47;5.30;;;;;;;;;;5078313;28;20467;-59
2023/07/08 00:20:15;;;;;;;5.10;3.80;;;21.30;99.90;;;;;;5077411;28;20446;-60
2023/07/08 00:22:43;;;;;;;6.17;4.33;;;21.50;99.90;;;;;;5076914;28;20466;-61
2023/07/08 00:25:10;;;;;;;5.37;3.93;;;21.20;99.90;;;;;;5080067;28;20476;-61
2023/07/08 00:27:37;;;;;;;7.23;4.93;;;;;;;;;;5079672;28;20465;-61
2023/07/08 00:30:24;;;;;;;4.87;4.00;;;21.60;99.90;;;;;;5081833;28;20481;-59
2023/07/08 00:32:53;;;;;;;4.30;3.77;;;;;;;;;;5077941;28;20905;-60
2023/07/08 00:35:27;;;;;;;9.10;4.37;;;21.00;99.90;;;;;;5078593;28;20472;-60
2023/07/08 00:38:01;;;;;;;5.40;4.17;;;20.90;99.90;;;;;;5077493;28;20477;-61
2023/07/08 00:40:28;;;;;;;4.10;3.77;;;20.60;99.90;;;;;;5078404;28;20819;-60
2023/07/08 00:42:55;;;;;;;6.50;4.17;;;20.50;96.40;;;;;;5077799;28;20524;-61
2023/07/08 00:45:42;;;;;;;4.83;3.57;;;20.80;99.90;;;;;;5079182;28;21045;-61
2023/07/08 00:48:23;;;;;;;4.60;4.10;;;20.90;92.50;;;;;;5080390;28;20464;-61
2023/07/08 00:50:50;;;;;;;6.20;4.60;;;20.70;99.90;;;;;;5078987;28;20438;-60
2023/07/08 00:53:29;;;;;;;5.17;3.93;;;20.80;93.60;;;;;;5079564;28;20445;-61
2023/07/08 00:56:00;;;;;;;7.57;3.87;;;20.80;93.70;;;;;;5079142;28;20867;-62
2023/07/08 00:58:31;;;;;;;5.23;4.47;;;21.00;94.10;;;;;;5082355;28;20446;-59
2023/07/08 01:01:06;;;;;;;6.40;3.67;;;20.60;94.30;;;;;;5081204;28;20517;-57
2023/07/08 01:03:37;;;;;;;5.30;4.80;;;20.60;94.60;;;;;;5082524;28;20495;-62
2023/07/08 01:06:06;;;;;;;5.37;4.40;;;20.80;99.90;;;;;;5076975;28;20573;-60
2023/07/08 01:08:33;;;;;;;5.60;4.50;;;20.30;99.90;;;;;;5076848;28;20438;-61
2023/07/08 01:11:04;;;;;;;5.07;4.57;;;20.90;96.30;;;;;;5076984;28;20482;-61
2023/07/08 01:13:34;;;;;;;5.53;4.87;;;20.60;96.80;;;;;;5076674;28;20971;-61
2023/07/08 01:16:03;;;;;;;8.73;4.40;;;20.50;96.90;;;;;;5077658;28;20423;-61
2023/07/08 01:18:31;;;;;;;6.43;5.07;;;;;;;;;;5076529;28;20471;-59
2023/07/08 01:21:06;;;;;;;5.80;5.10;;;20.10;99.90;;;;;;5080008;28;20500;-61
2023/07/08 01:23:36;;;;;;;5.63;4.53;;;20.70;99.90;;;;;;5079693;28;20462;-60
2023/07/08 01:26:03;;;;;;;5.13;4.10;;;;;;;;;;5078837;28;20497;-59
2023/07/08 01:28:31;;;;;;;5.93;4.70;;;20.30;99.90;;;;;;5081583;28;20925;-57
2023/07/08 01:30:58;;;;;;;6.37;5.60;;;20.60;99.90;;;;;;5080752;28;20517;-60
2023/07/08 01:33:25;;;;;;;6.20;4.07;;;;;;;;;;5076232;28;20427;-62
2023/07/08 01:35:55;;;;;;;4.57;3.90;;;19.70;98.20;;;;;;5077074;28;20466;-61
2023/07/08 01:38:25;;;;;;;5.50;4.33;;;20.50;99.90;;;;;;5079522;28;20485;-62
2023/07/08 01:40:56;;;;;;;5.43;4.37;;;20.10;99.90;;;;;;5079590;28;20438;-62
2023/07/08 01:43:23;;;;;;;7.90;5.43;;;;;;;;;;5084116;28;20462;-60
2023/07/08 01:45:51;;;;;;;6.20;4.37;;;20.20;99.30;;;;;;5076751;28;20473;-61
2023/07/08 01:48:21;;;;;;;6.23;4.30;;;20.30;99.50;;;;;;5078133;28;20533;-59
2023/07/08 01:50:56;;;;;;;5.90;4.90;;;20.30;99.90;;;;;;5077667;28;20529;-60
2023/07/08 01:53:30;;;;;;;5.00;4.10;;;20.20;99.70;;;;;;5082164;28;20530;-60
2023/07/08 01:55:58;;;;;;;5.73;3.73;;;19.80;99.90;;;;;;5081371;28;20467;-62
2023/07/08 01:58:26;;;;;;;8.27;5.47;;;20.20;99.90;;;;;;5077158;28;20499;-61
2023/07/08 02:00:54;;;;;;;3.83;3.53;;;20.10;99.90;;;;;;5084483;28;20771;-61
2023/07/08 02:03:21;;;;;;;6.00;4.57;;;;;;;;;;5089964;28;20530;-60
2023/07/08 02:05:48;;;;;;;6.77;4.87;;;;;;;;;;5091021;28;20506;-59
2023/07/08 02:08:15;;;;;;;5.77;3.93;;;;;;;;;;5093909;28;20538;-60
2023/07/08 02:10:44;;;;;;;6.53;3.80;;;20.00;99.90;;;;;;5086686;28;20537;-60
2023/07/08 02:13:12;;;;;;;4.30;3.80;;;20.20;99.90;;;;;;5093327;28;20909;-59
2023/07/08 02:15:39;;;;;;;6.10;3.70;;;20.30;99.90;;;;;;5089880;28;20462;-61
2023/07/08 02:18:05;;;;;;;6.50;4.30;;;20.10;99.90;;;;;;5086570;28;20453;-61
2023/07/08 02:20:33;;;;;;;6.90;4.10;;;;;;;;;;5085456;28;20534;-61
2023/07/08 02:23:00;;;;;;;5.03;3.83;;;;;;;;;;5083483;28;20863;-59
2023/07/08 02:25:27;;;;;;;6.90;4.77;;;20.00;99.90;;;;;;5085445;28;20469;-61
2023/07/08 02:27:57;;;;;;;6.93;5.97;;;19.90;99.90;;;;;;5084613;28;20492;-61
2023/07/08 02:30:25;;;;;;;4.20;3.80;;;20.20;99.90;;;;;;5078418;28;20528;-61
2023/07/08 02:32:56;;;;;;;5.27;4.23;;;19.70;99.90;;;;;;5078316;28;20438;-59
2023/07/08 02:35:25;;;;;;;8.03;4.30;;;19.80;99.90;;;;;;5077698;28;20422;-63
2023/07/08 02:37:52;;;;;;;4.83;4.07;;;19.60;99.90;;;;;;5075284;28;20438;-61
2023/07/08 02:40:19;;;;;;;6.60;4.30;;;;;;;;;;5074956;28;20470;-61
2023/07/08 02:42:46;;;;;;;4.00;3.67;;;20.50;99.90;;;;;;5080520;28;20473;-61
2023/07/08 02:45:14;;;;;;;3.63;3.33;;;19.80;99.90;;;;;;5080426;28;20462;-60
2023/07/08 02:47:42;;;;;;;6.07;4.00;;;19.50;99.90;;;;;;5077539;28;20463;-60
2023/07/08 02:50:10;;;;;;;4.80;4.33;;;19.70;99.90;;;;;;5074784;28;21005;-59
2023/07/08 02:52:37;;;;;;;5.30;3.70;;;;;;;;;;5076005;28;20512;-59
2023/07/08 02:55:08;;;;;;;4.47;3.40;;;19.80;99.90;;;;;;5080877;28;20477;-61
2023/07/08 02:57:35;;;;;;;4.43;4.03;;;20.10;99.90;;;;;;5087528;28;20438;-60
2023/07/08 03:00:03;;;;;;;5.03;3.53;;;;;;;;;;5078526;28;20484;-60
2023/07/08 03:02:31;;;;;;;4.70;3.57;;;;;;;;;;5077297;28;20450;-60
2023/07/08 03:05:00;;;;;;;4.00;3.70;;;19.60;99.90;;;;;;5076703;28;20470;-62
2023/07/08 03:07:28;;;;;;;6.30;4.17;;;;;;;;;;5077697;28;20478;-61
2023/07/08 03:09:54;;;;;;;5.30;3.97;;;19.80;99.90;;;;;;5074920;28;20478;-60
2023/07/08 03:12:22;;;;;;;6.70;3.77;;;;;;;;;;5077705;28;20537;-61
2023/07/08 03:14:50;;;;;;;4.97;4.13;;;;;;;;;;5087522;28;20446;-60
2023/07/08 03:17:19;;;;;;;6.73;4.33;;;;;;;;;;5088400;28;20471;-58
2023/07/08 03:19:46;;;;;;;4.40;4.00;;;19.60;99.90;;;;;;5092645;28;20446;-61
2023/07/08 03:22:14;;;;;;;4.70;4.03;;;;;;;;;;5088913;28;20474;-56
2023/07/08 03:24:45;;;;;;;4.70;4.27;;;19.50;99.90;;;;;;5087278;28;20438;-61
2023/07/08 03:27:13;;;;;;;4.27;3.87;;;19.80;99.90;;;;;;5081538;28;20470;-60
2023/07/08 03:29:41;;;;;;;4.90;3.83;;;;;;;;;;5087417;28;20468;-58
2023/07/08 03:32:10;;;;;;;6.30;4.40;;;19.60;99.90;;;;;;5086654;28;20443;-56
2023/07/08 03:34:39;;;;;;;9.30;4.80;;;;;;;;;;5083111;28;20511;-59
2023/07/08 03:37:07;;;;;;;3.80;3.50;;;19.60;99.90;;;;;;5075134;28;20556;-58
2023/07/08 03:39:35;;;;;;;4.20;2.90;;;19.70;99.90;;;;;;5074808;28;20478;-60
2023/07/08 03:42:03;;;;;;;4.07;3.67;;;;;;;;;;5074570;28;20462;-60
2023/07/08 03:44:30;;;;;;;5.30;3.27;;;20.30;99.90;;;;;;5075355;28;20446;-57
2023/07/08 03:46:58;;;;;;;4.30;3.90;;;;;;;;;;5077979;28;20524;-61
2023/07/08 03:49:25;;;;;;;5.00;3.80;;;19.70;99.90;;;;;;5080961;28;20482;-62
2023/07/08 03:51:54;;;;;;;3.80;3.40;;;19.40;99.90;;;;;;5080770;28;20446;-61
2023/07/08 03:54:30;;;;;;;5.60;3.80;;;19.80;99.90;;;;;;5085266;28;20466;-62
2023/07/08 03:56:59;;;;;;;5.17;3.97;;;19.80;99.90;;;;;;5081175;28;20862;-61
2023/07/08 03:59:27;;;;;;;14.87;3.97;;;;;;;;;;5092225;28;20457;-60
2023/07/08 04:01:53;;;;;;;8.40;3.57;;;19.60;99.90;;;;;;5095461;28;20442;-60
2023/07/08 04:04:20;;;;;;;5.53;4.20;;;19.70;99.90;;;;;;5083586;28;20945;-60
2023/07/08 04:06:48;;;;;;;5.10;3.67;;;;;;;;;;5087039;28;20506;-60
2023/07/08 04:09:15;;;;;;;7.10;4.20;;;;;;;;;;5083605;28;20472;-60
2023/07/08 04:11:42;;;;;;;5.43;3.90;;;20.10;99.90;;;;;;5081207;28;20541;-60
2023/07/08 04:14:11;;;;;;;4.27;3.77;;;19.70;99.90;;;;;;5080955;28;20442;-61
2023/07/08 04:16:46;;;;;;;5.23;4.67;;;19.70;99.90;;;;;;5081351;28;20470;-61
2023/07/08 04:19:16;;;;;;;4.87;4.37;;;20.00;99.90;;;;;;5083935;28;20543;-60
2023/07/08 04:21:44;;;;;;;4.20;3.80;;;20.10;99.90;;;;;;5079888;28;20533;-57
2023/07/08 04:24:12;;;;;;;5.17;4.60;;;19.80;99.90;;;;;;5078002;28;20495;-60
2023/07/08 04:26:40;;;;;;;4.53;3.90;;;;;;;;;;5078631;28;20900;-62
2023/07/08 04:29:12;;;;;;;4.40;3.60;;;20.00;99.90;;;;;;5077896;28;20445;-62
2023/07/08 04:31:41;;;;;;;4.97;4.10;;;;;;;;;;5077703;28;20558;-60
2023/07/08 04:34:08;;;;;;;5.00;3.73;;;20.00;99.90;;;;;;5078655;28;20461;-60
2023/07/08 04:36:35;;;;;;;5.40;4.30;;;;;;;;;;5077757;28;20466;-61
2023/07/08 04:39:02;;;;;;;5.70;4.10;;;20.00;99.90;;;;;;5080192;28;20517;-61
2023/07/08 04:41:29;;;;;;;4.63;4.23;;;20.10;99.90;;;;;;5080722;28;20524;-61
2023/07/08 04:43:57;;;;;;;3.80;3.50;;;;;;;;;;5080145;28;20521;-60
2023/07/08 04:46:34;;;;;;;3.83;3.43;;;19.90;99.90;;;;;;5079121;28;20804;-59
2023/07/08 04:49:02;;;;;;;6.70;3.73;;;;;;;;;;5078838;28;20565;-61
2023/07/08 04:51:30;;;;;;;5.60;3.70;;;;;;;;;;5079573;28;20529;-61
2023/07/08 04:53:57;;;;;;;3.70;3.40;;;;;;;;;;5079396;28;20494;-60
2023/07/08 04:56:24;;;;;;;4.70;3.10;;;;;;;;;;5079305;28;20442;-61
2023/07/08 04:58:51;;;;;;;5.97;4.00;;;;;;;;;;5081996;28;20832;-59
2023/07/08 05:01:19;;;;;;;4.03;3.67;;;;;;;;;;5081780;28;20821;-60
2023/07/08 05:03:56;;;;;;;4.63;3.90;;;20.10;99.90;;;;;;5084066;28;20914;-59
2023/07/08 05:06:23;;;;;;;5.40;3.97;;;19.90;99.90;;;;;;5081623;28;20476;-62
2023/07/08 05:08:51;;;;;;;4.40;3.80;;;;;;;;;;5091132;28;20507;-60
2023/07/08 05:11:18;;;;;;;6.67;3.90;;;;;;;;;;5086652;28;20461;-61
2023/07/08 05:13:45;;;;;;;5.40;4.60;;;20.50;99.90;;;;;;5088266;28;20467;-62
2023/07/08 05:16:12;;;;;;;14.30;4.27;;;;;;;;;;5083638;28;20438;-62
2023/07/08 05:18:39;;;;;;;5.37;3.73;;;;;;;;;;5080624;28;20458;-60
2023/07/08 05:21:08;;;;;;;5.23;4.73;;;20.40;99.90;;;;;;5078084;28;21028;-59
2023/07/08 05:23:35;;;;;;;5.70;3.77;;;20.70;99.90;;;;;;5078522;28;20454;-61
2023/07/08 05:26:02;;;;;;;3.77;3.37;;;;;;;;;;5079506;28;20752;-59
2023/07/08 05:28:29;;;;;;;6.40;4.30;;;20.70;99.90;;;;;;5078186;28;21061;-59
2023/07/08 05:30:56;;;;;;;5.70;4.23;;;20.70;99.90;;;;;;5082336;28;20533;-58
2023/07/08 05:33:24;;;;;;;8.27;4.43;;;;;;;;;;5078018;28;20801;-59
2023/07/08 05:35:51;;;;;;;7.27;4.93;;;;;;;;;;5079882;28;20541;-59
2023/07/08 05:38:19;;;;;;;6.47;4.20;;;;;;;;;;5081693;28;20983;-60
2023/07/08 05:40:50;;;;;;;4.23;3.83;;;21.20;99.90;;;;;;5081548;28;20514;-61
2023/07/08 05:43:17;;;;;;;4.33;3.93;;;21.40;99.90;;;;;;5081480;28;20984;-59
2023/07/08 05:45:44;;;;;;;4.20;3.70;;;;;;;;;;5080618;28;20934;-61
2023/07/08 05:48:11;;;;;;;5.37;4.27;;;21.30;99.90;;;;;;5086350;28;20513;-58
2023/07/08 05:50:40;;;;;;;4.07;3.57;;;21.40;99.90;;;;;;5080628;28;20489;-59
2023/07/08 05:53:11;;;;;;;4.23;3.63;;;21.50;99.90;;;;;;5076799;28;20546;-59
2023/07/08 05:55:42;;;;;;;7.27;4.10;;;;;;;;;;5075944;28;20929;-60
2023/07/08 05:58:10;;;;;;;8.77;4.23;;;21.80;99.90;;;;;;5077522;28;20477;-58
2023/07/08 06:00:37;;;;;;;5.43;4.70;;;;;;;;;;5077863;28;20427;-58
2023/07/08 06:03:04;;;;;;;4.53;3.90;;;;;;;;;;5077635;28;20626;-59
2023/07/08 06:05:32;;;;;;;5.87;4.80;;;22.10;99.90;;;;;;5077184;28;20474;-59
2023/07/08 06:08:00;;;;;;;4.30;3.80;;;;;;;;;;5076004;28;20560;-60
2023/07/08 06:10:26;;;;;;;4.63;4.20;;;22.10;99.90;;;;;;5075594;28;20542;-60
2023/07/08 06:12:55;;;;;;;6.23;4.00;;;22.10;99.90;;;;;;5075686;28;20510;-60
2023/07/08 06:15:23;;;;;;;5.40;4.40;;;22.00;99.90;;;;;;5076427;28;20528;-62
2023/07/08 06:17:51;;;;;;;4.20;3.80;;;;;;;;;;5083117;28;20812;-62
2023/07/08 06:20:18;;;;;;;3.73;3.43;;;;;;;;;;5078918;28;21015;-60
2023/07/08 06:22:45;;;;;;;4.57;4.00;;;22.50;99.90;;;;;;5078849;28;20537;-63
2023/07/08 06:25:12;;;;;;;5.27;4.27;;;;;;;;;;5079204;28;20462;-64
2023/07/08 06:27:39;;;;;;;7.20;5.30;;;22.60;99.90;;;;;;5077148;28;20467;-64
2023/07/08 06:30:10;;;;;;;3.70;3.40;;;22.30;99.90;;;;;;5079985;28;20909;-61
2023/07/08 06:32:37;;;;;;;5.10;3.97;;;;;;;;;;5075313;28;21022;-63
2023/07/08 06:35:04;;;;;;;4.57;4.17;;;22.70;99.90;;;;;;5075172;28;20986;-61
2023/07/08 06:37:35;;;;;;;8.10;4.63;;;22.70;99.90;;;;;;5082105;28;20502;-62
2023/07/08 06:40:03;;;;;;;6.73;4.20;;;;;;;;;;5075710;28;20434;-61
2023/07/08 06:42:30;;;;;;;5.10;3.50;;;;;;;;;;5075168;28;20803;-58
2023/07/08 06:44:57;;;;;;;4.37;3.97;;;22.80;99.90;;;;;;5075204;28;20471;-63
2023/07/08 06:47:25;;;;;;;4.50;3.90;;;23.00;99.90;;;;;;5074976;28;20716;-59
2023/07/08 06:49:52;;;;;;;3.80;3.50;;;;;;;;;;5076767;28;20474;-60
2023/07/08 06:52:20;;;;;;;9.03;4.00;;;;;;;;;;5079221;28;20475;-62
2023/07/08 06:54:47;;;;;;;4.80;4.33;;;;;;;;;;5078837;28;20478;-61
2023/07/08 06:57:14;;;;;;;8.97;5.00;;;;;;;;;;5079583;28;20462;-65
2023/07/08 06:59:41;;;;;;;10.20;4.20;;;;;;;;;;5079104;28;20489;-63
2023/07/08 07:02:09;;;;;;;4.70;4.30;;;23.80;99.70;;;;;;5080028;28;20485;-61
2023/07/08 07:04:38;;;;;;;4.30;3.90;;;23.60;99.90;;;;;;5078586;28;20442;-61
2023/07/08 07:07:05;;;;;;;6.07;4.13;;;23.90;99.90;;;;;;5080430;28;20509;-62
2023/07/08 07:09:32;;;;;;;7.93;4.67;;;;;;;;;;5079073;28;20861;-63
2023/07/08 07:11:59;;;;;;;6.13;4.67;;;;;;;;;;5078056;28;20460;-61
2023/07/08 07:14:26;;;;;;;6.13;4.50;;;24.50;99.90;;;;;;5078424;28;20828;-61
2023/07/08 07:16:53;;;;;;;5.60;4.70;;;;;;;;;;5077625;28;20550;-59
2023/07/08 07:19:21;;;;;;;4.87;4.30;;;;;;;;;;5077589;28;20501;-61
2023/07/08 07:21:49;;;;;;;8.73;4.23;;;25.50;99.90;;;;;;5076740;28;20479;-59
2023/07/08 07:24:16;;;;;;;6.50;4.07;;;27.00;99.90;;;;;;5078146;28;20493;-62
2023/07/08 07:26:43;;;;;;;8.77;4.20;;;;;;;;;;5076741;28;20984;-60
2023/07/08 07:29:10;;;;;;;5.40;4.23;;;;;;;;;;5076310;28;20496;-60
2023/07/08 07:31:39;;;;;;;5.53;4.10;;;33.10;96.40;;;;;;5075505;28;20533;-61
2023/07/08 07:34:07;;;;;;;6.63;4.77;;;34.70;90.70;;;;;;5077371;28;20482;-62
2023/07/08 07:36:34;;;;;;;8.20;7.40;;;;;;;;;;5074913;28;20442;-61
2023/07/08 07:39:02;;;;;;;8.17;7.40;;;38.20;71.80;;;;;;5074333;28;20521;-62
2023/07/08 07:41:29;;;;;;;9.93;6.97;;;39.60;67.30;;;;;;5074615;28;20483;-61
2023/07/08 07:43:56;;;;;;;5.17;4.67;;;;;;;;;;5074717;28;20509;-61
2023/07/08 07:46:23;;;;;;;6.43;5.70;;;41.10;62.80;;;;;;5074783;28;20553;-61
2023/07/08 07:48:50;;;;;;;5.77;4.80;;;41.60;61.00;;;;;;5074270;28;20564;-62
2023/07/08 07:51:19;;;;;;;4.77;4.37;;;41.50;59.20;;;;;;5074495;28;20486;-62
2023/07/08 07:53:46;;;;;;;4.67;4.30;;;41.40;57.70;;;;;;5074574;28;20904;-62
2023/07/08 07:56:14;;;;;;;4.70;4.30;;;41.40;66.80;;;;;;5074762;28;20450;-60
2023/07/08 07:58:41;;;;;;;6.00;4.17;;;41.70;62.30;;;;;;5074935;28;20462;-61
2023/07/08 08:01:08;;;;;;;4.53;4.13;;;40.90;58.30;;;;;;5076893;28;20442;-61
2023/07/08 08:03:35;;;;;;;4.83;4.33;;;41.60;66.10;;;;;;5076650;28;20450;-61
2023/07/08 08:06:02;;;;;;;4.70;4.20;;;41.60;66.80;;;;;;5077369;28;20914;-61
2023/07/08 08:08:28;;;;;;;5.47;4.93;;;41.60;67.70;;;;;;5077295;28;20554;-62
2023/07/08 08:10:55;;;;;;;5.50;4.30;;;41.60;67.10;;;;;;5077627;28;20509;-58
2023/07/08 08:13:24;;;;;;;4.60;4.20;;;;;;;;;;5077357;28;20914;-61
2023/07/08 08:15:57;;;;;;;5.67;4.87;;;41.40;35.40;;;;;;5077875;28;20452;-61
2023/07/08 08:18:24;;;;;;;5.40;4.27;;;41.30;59.00;;;;;;5077927;28;20462;-59
2023/07/08 08:20:51;;;;;;;4.30;3.90;;;41.30;68.20;;;;;;5077639;28;20536;-60
2023/07/08 08:23:18;;;;;;;4.73;4.30;;;40.80;66.00;;;;;;5079194;28;20556;-60
2023/07/08 08:25:45;;;;;;;5.90;4.80;;;41.10;59.00;;;;;;5077206;28;20513;-62
2023/07/08 08:28:12;;;;;;;5.73;4.40;;;;;;;;;;5078799;28;20549;-61
2023/07/08 08:30:40;;;;;;;5.33;4.13;;;41.20;59.50;;;;;;5077144;28;20511;-61
2023/07/08 08:33:07;;;;;;;4.57;4.17;;;;;;;;;;5078910;28;20486;-61
2023/07/08 08:35:34;;;;;;;7.03;3.97;;;41.00;66.90;;;;;;5075818;28;20966;-62
2023/07/08 08:38:02;;;;;;;5.70;4.10;;;40.90;59.40;;;;;;5075370;28;20538;-62
2023/07/08 08:40:31;;;;;;;4.40;4.00;;;40.60;36.10;;;;;;5077451;28;20936;-62
2023/07/08 08:43:03;;;;;;;4.50;4.10;;;40.80;67.30;;;;;;5074340;28;20824;-63
2023/07/08 08:45:34;;;;;;;8.60;5.13;;;40.70;68.00;;;;;;5077362;28;20433;-62
2023/07/08 08:48:05;;;;;;;4.00;3.70;;;40.70;63.40;;;;;;5079412;28;20556;-61
2023/07/08 08:50:37;;;;;;;5.00;3.77;;;40.90;35.80;;;;;;5080148;28;20430;-62
2023/07/08 08:53:07;;;;;;;4.70;3.30;;;40.90;35.70;;;;;;5077131;28;20989;-61
2023/07/08 08:55:34;;;;;;;4.30;3.90;;;40.50;64.20;;;;;;5077357;28;20473;-62
2023/07/08 08:58:14;;;;;;;4.43;3.60;;;40.80;61.30;;;;;;5077286;28;20530;-62
2023/07/08 09:00:54;;;;;;;3.97;3.60;;;40.70;57.80;;;;;;5077828;28;20502;-61
2023/07/08 09:03:33;;;;;;;4.40;4.00;;;40.60;34.90;;;;;;5081732;28;20430;-61
2023/07/08 09:06:02;;;;;;;4.27;3.87;;;40.70;64.70;;;;;;5079781;28;20517;-61
2023/07/08 09:08:35;;;;;;;5.60;3.97;;;40.60;34.80;;;;;;5077461;28;20543;-62
2023/07/08 09:11:11;;;;;;;4.40;4.00;;;40.60;57.20;;;;;;5076801;28;20919;-62
2023/07/08 09:13:38;;;;;;;5.57;3.30;;;40.60;54.20;;;;;;5078329;28;20434;-63
2023/07/08 09:16:09;;;;;;;3.63;3.33;;;40.50;64.60;;;;;;5077486;28;20512;-61
2023/07/08 09:18:45;;;;;;;3.80;3.50;;;40.80;33.80;;;;;;5080048;28;20466;-62
2023/07/08 09:21:19;;;;;;;3.10;2.90;;;40.90;64.60;;;;;;5080150;28;20504;-62
2023/07/08 09:23:50;;;;;;;3.83;3.53;;;40.90;62.90;;;;;;5079747;28;20426;-62
2023/07/08 09:26:22;;;;;;;4.73;3.23;;;40.70;56.00;;;;;;5079086;28;20910;-61
2023/07/08 09:28:49;;;;;;;4.13;3.70;;;40.90;63.20;;;;;;5081439;28;20490;-62
2023/07/08 09:31:24;;;;;;;3.50;3.20;;;40.80;56.20;;;;;;5080516;28;20545;-60
2023/07/08 09:33:54;;;;;;;4.70;3.90;;;40.80;59.80;;;;;;5082296;28;20573;-61
2023/07/08 09:36:24;;;;;;;4.80;3.30;;;40.60;64.30;;;;;;5080598;28;20506;-60
2023/07/08 09:38:52;;;;;;;4.07;3.77;;;40.50;33.80;;;;;;5082312;28;20515;-61
2023/07/08 09:41:33;;;;;;;4.50;4.10;;;40.60;56.60;;;;;;5081107;28;20466;-62
2023/07/08 09:44:19;;;;;;;10.67;3.57;;;40.50;30.90;;;;;;5080643;28;20498;-63
2023/07/08 09:46:46;;;;;;;8.03;3.70;;;40.40;55.20;;;;;;5079806;28;20437;-62
2023/07/08 09:49:23;;;;;;;3.50;3.20;;;40.30;30.50;;;;;;5080898;28;20493;-61
2023/07/08 09:51:52;;;;;;;4.13;3.30;;;40.20;31.70;;;;;;5082079;28;20458;-62
2023/07/08 09:54:20;;;;;;;7.33;3.30;;;40.40;54.50;;;;;;5082079;28;20529;-61
2023/07/08 09:56:56;;;;;;;6.20;3.40;;;40.20;31.20;;;;;;5079401;28;20930;-60
2023/07/08 09:59:31;;;;;;;4.40;4.00;;;40.30;53.90;;;;;;5081084;28;20433;-61
2023/07/08 10:02:01;;;;;;;3.77;3.43;;;40.80;60.10;;;;;;5084284;28;20541;-62
2023/07/08 10:04:29;;;;;;;3.87;3.30;;;40.70;54.20;;;;;;5082045;28;20474;-61
2023/07/08 10:06:56;;;;;;;3.07;2.67;;;;;;;;;;5075679;28;20509;-62
2023/07/08 10:09:26;;;;;;;3.50;2.63;;;40.50;53.70;;;;;;5077945;28;20478;-61
2023/07/08 10:11:59;;;;;;;9.70;4.03;;;41.10;60.20;;;;;;5080543;28;20573;-61
2023/07/08 10:14:29;;;;;;;4.77;3.03;;;40.70;55.70;;;;;;5082347;28;20495;-61
2023/07/08 10:16:56;;;;;;;4.10;3.63;;;40.50;62.10;;;;;;5079648;28;20519;-58
2023/07/08 10:19:25;;;;;;;4.03;3.63;;;40.20;54.40;;;;;;5078435;28;20926;-62
2023/07/08 10:22:03;;;;;;;3.47;3.10;;;40.00;62.10;;;;;;5076001;28;20526;-61
2023/07/08 10:24:46;;;;;;;5.60;4.77;;;39.70;63.70;;;;;;5075250;28;20505;-62
2023/07/08 10:27:20;;;;;;;3.57;3.27;;;39.50;60.80;;;;;;5075881;28;20538;-64
2023/07/08 10:29:54;;;;;;;7.30;4.50;;;39.80;63.60;;;;;;5077478;28;20521;-62
2023/07/08 10:32:32;;;;;;;7.73;3.30;;;39.40;32.50;;;;;;5081124;28;20430;-62
2023/07/08 10:35:09;;;;;;;3.80;3.20;;;39.30;56.00;;;;;;5081278;28;20491;-63
2023/07/08 10:37:46;;;;;;;4.43;4.13;;;38.90;62.50;;;;;;5083486;28;20426;-63
2023/07/08 10:40:31;;;;;;;5.77;3.80;;;38.60;55.80;;;;;;5081014;28;20549;-63
2023/07/08 10:43:14;;;;;;;5.30;4.80;;;38.40;57.20;;;;;;5079800;28;20434;-63
2023/07/08 10:45:49;;;;;;;5.40;4.63;;;38.20;33.60;;;;;;5080135;28;20437;-60
2023/07/08 10:48:34;;;;;;;3.60;3.30;;;38.10;34.20;;;;;;5080133;28;20493;-63
2023/07/08 10:51:19;;;;;;;5.57;4.23;;;37.50;58.70;;;;;;5080878;28;20430;-64
2023/07/08 10:54:06;;;;;;;4.43;3.50;;;37.00;65.00;;;;;;5078616;28;20449;-62
2023/07/08 10:56:43;;;;;;;4.13;3.40;;;36.80;68.60;;;;;;5078398;28;20496;-61
2023/07/08 10:59:39;;;;;;;4.90;4.40;;;36.30;59.50;;;;;;5077233;28;20480;-63
2023/07/08 11:02:41;;;;;;;4.13;3.73;;;36.20;69.80;;;;;;5078825;28;20936;-62
2023/07/08 11:05:20;;;;;;;6.80;3.50;;;36.10;61.00;;;;;;5077784;28;20921;-61
2023/07/08 11:07:53;;;;;;;4.93;3.80;;;35.90;37.70;;;;;;5076878;28;20458;-62
2023/07/08 11:10:29;;;;;;;7.23;4.30;;;35.90;37.70;;;;;;5081527;28;20478;-61
2023/07/08 11:13:01;;;;;;;3.63;3.33;;;35.70;68.30;;;;;;5085910;28;20506;-63
2023/07/08 11:15:32;;;;;;;3.33;3.10;;;35.50;68.70;;;;;;5077126;28;20517;-61
2023/07/08 11:18:04;;;;;;;3.53;3.17;;;35.20;37.30;;;;;;5077524;28;20839;-61
2023/07/08 11:20:39;;;;;;;3.83;3.40;;;35.30;38.90;;;;;;5077261;28;20477;-56
2023/07/08 11:23:13;;;;;;;3.13;2.63;;;35.30;68.10;;;;;;5076199;28;20472;-61
2023/07/08 11:25:45;;;;;;;7.50;3.90;;;35.30;39.10;;;;;;5078527;28;20466;-65
2023/07/08 11:28:17;;;;;;;5.83;4.27;;;35.20;38.00;;;;;;5078072;28;20434;-61
2023/07/08 11:30:48;;;;;;;6.67;4.87;;;35.00;38.20;;;;;;5079666;28;20476;-60
2023/07/08 11:33:25;;;;;;;6.20;5.53;;;35.30;71.60;;;;;;5080345;28;20462;-64
2023/07/08 11:35:55;;;;;;;5.00;4.00;;;35.10;63.30;;;;;;5079433;28;20473;-60
2023/07/08 11:38:22;;;;;;;5.70;3.73;;;35.00;69.80;;;;;;5080325;28;20501;-63
2023/07/08 11:40:56;;;;;;;4.20;3.50;;;34.60;70.30;;;;;;5080076;28;20537;-62
2023/07/08 11:43:25;;;;;;;5.97;4.87;;;34.90;61.70;;;;;;5084714;28;20472;-61
2023/07/08 11:45:56;;;;;;;5.13;4.53;;;34.80;63.40;;;;;;5082522;28;20970;-61
2023/07/08 11:48:27;;;;;;;3.93;3.60;;;34.60;66.10;;;;;;5082435;28;20470;-63
2023/07/08 11:50:55;;;;;;;4.67;3.90;;;34.70;72.80;;;;;;5076979;28;20435;-60
2023/07/08 11:53:38;;;;;;;3.03;2.73;;;34.40;70.10;;;;;;5078125;28;20446;-62
2023/07/08 11:56:21;;;;;;;3.70;3.40;;;34.40;61.20;;;;;;5076920;28;20550;-59
2023/07/08 11:59:06;;;;;;;5.53;5.03;;;33.90;62.40;;;;;;5075245;28;20414;-62
2023/07/08 12:01:38;;;;;;;4.87;4.20;;;33.90;63.90;;;;;;5077938;28;20426;-61
2023/07/08 12:04:24;;;;;;;7.30;4.30;;;34.00;38.40;;;;;;5078032;28;20430;-63
2023/07/08 12:07:02;;;;;;;5.90;4.73;;;34.10;62.40;;;;;;5078934;28;20449;-62
2023/07/08 12:09:30;;;;;;;9.90;5.70;;;33.80;39.00;;;;;;5080136;28;20486;-63
2023/07/08 12:12:02;;;;;;;11.53;7.40;;;33.80;70.90;;;;;;5077272;28;20453;-61
2023/07/08 12:14:30;;;;;;;4.90;4.40;;;33.80;72.40;;;;;;5078556;28;20537;-63
2023/07/08 12:16:57;;;;;;;10.60;6.03;;;34.10;73.10;;;;;;5078128;28;20537;-61
2023/07/08 12:19:26;;;;;;;5.63;4.40;;;34.00;38.70;;;;;;5078411;28;20438;-62
2023/07/08 12:21:53;;;;;;;6.07;4.13;;;;;;;;;;5077542;28;20533;-64
2023/07/08 12:24:26;;;;;;;3.87;3.47;;;;;;;;;;5078056;28;20513;-62
2023/07/08 12:26:53;;;;;;;4.10;3.70;;;;;;;;;;5081623;28;20430;-62
2023/07/08 12:29:23;;;;;;;3.90;3.50;;;34.10;38.30;;;;;;5077761;28;20500;-61
2023/07/08 12:31:50;;;;;;;4.90;3.70;;;33.70;71.30;;;;;;5077683;28;20477;-61
2023/07/08 12:34:18;;;;;;;4.13;3.50;;;33.60;63.00;;;;;;5077977;28;20478;-59
2023/07/08 12:36:46;;;;;;;7.00;3.63;;;33.90;37.80;;;;;;5081294;28;20478;-60
2023/07/08 12:39:16;;;;;;;4.40;4.00;;;33.50;38.80;;;;;;5080900;28;20539;-62
2023/07/08 12:41:44;;;;;;;3.90;3.50;;;33.80;40.20;;;;;;5080967;28;20458;-62
2023/07/08 12:44:19;;;;;;;8.43;4.10;;;33.80;63.30;;;;;;5080477;28;20754;-62
2023/07/08 12:46:48;;;;;;;8.50;4.40;;;33.90;40.80;;;;;;5080068;28;20456;-62
2023/07/08 12:49:16;;;;;;;5.50;4.47;;;33.50;62.60;;;;;;5079800;28;20512;-61
2023/07/08 12:51:44;;;;;;;4.40;3.30;;;33.50;38.00;;;;;;5079948;28;20438;-62
2023/07/08 12:54:12;;;;;;;4.70;3.60;;;33.70;65.50;;;;;;5080214;28;20489;-62
2023/07/08 12:56:41;;;;;;;7.60;3.50;;;33.70;38.00;;;;;;5080799;28;20832;-61
2023/07/08 12:59:08;;;;;;;4.50;4.10;;;;;;;;;;5079651;28;20474;-63
2023/07/08 13:01:37;;;;;;;4.50;4.10;;;33.80;39.50;;;;;;5079820;28;20565;-63
2023/07/08 13:04:10;;;;;;;4.47;4.00;;;33.90;64.20;;;;;;5079551;28;20466;-62
2023/07/08 13:06:39;;;;;;;8.33;5.10;;;33.70;65.10;;;;;;5079696;28;20463;-63
2023/07/08 13:09:19;;;;;;;3.60;3.30;;;33.80;63.40;;;;;;5079597;28;21033;-61
2023/07/08 13:11:46;;;;;;;7.63;4.57;;;33.70;38.20;;;;;;5076719;28;20498;-63
2023/07/08 13:14:14;;;;;;;6.47;5.03;;;33.70;38.20;;;;;;5077101;28;20474;-60
2023/07/08 13:16:42;;;;;;;5.80;4.40;;;33.70;38.70;;;;;;5077564;28;20973;-63
2023/07/08 13:19:13;;;;;;;8.33;3.50;;;33.20;72.10;;;;;;5080349;28;20538;-63
2023/07/08 13:21:41;;;;;;;6.87;6.17;;;33.40;37.40;;;;;;5080987;28;20441;-61
2023/07/08 13:24:10;;;;;;;4.00;3.47;;;33.40;72.00;;;;;;5077112;28;20443;-61
2023/07/08 13:26:38;;;;;;;6.00;4.33;;;;;;;;;;5077091;28;20434;-60